Time;durP1;ratioP1;P1;durP2;ratioP2;P2;SDS_P1;SDS_P2;PMS_P1;PMS_P2;Temp;Humidity;BMP_temperature;BMP_pressure;BME280_temperature;BME280_humidity;BME280_pressure;Samples;Min_cycle;Max_cycle;Signal;HPM_P1;HPM_P2
2023/10/01 00:01:45;;;;;;;2.28;1.33;;;;;;;19.74;74.66;100333.06;5076931;28;20195;-81
2023/10/01 00:04:12;;;;;;;2.20;1.17;;;;;;;19.72;74.85;100334.00;5074987;28;20739;-80
2023/10/01 00:06:39;;;;;;;5.50;1.55;;;;;;;19.69;75.27;100334.06;5076302;28;20199;-81
2023/10/01 00:09:08;;;;;;;1.65;1.20;;;;;;;19.74;75.61;100327.78;5077674;28;20267;-80
2023/10/01 00:11:37;;;;;;;1.15;1.15;;;;;;;19.77;76.17;100330.38;5080729;28;20195;-80
2023/10/01 00:14:06;;;;;;;9.00;2.35;;;;;;;19.58;76.04;100310.56;5079805;28;20222;-80
2023/10/01 00:16:32;;;;;;;3.35;1.30;;;;;;;19.68;76.47;100316.53;5079335;28;20230;-79
2023/10/01 00:19:00;;;;;;;3.88;1.25;;;;;;;19.72;75.40;100315.56;5081871;28;20234;-79
2023/10/01 00:21:28;;;;;;;4.32;1.48;;;;;;;19.73;71.21;100288.34;5080017;28;20194;-81
2023/10/01 00:23:55;;;;;;;4.28;1.95;;;;;;;19.71;70.15;100282.25;5074335;28;20191;-81
2023/10/01 00:26:23;;;;;;;8.18;1.80;;;;;;;20.09;67.79;100307.81;5074643;28;20689;-83
2023/10/01 00:28:50;;;;;;;1.38;1.13;;;;;;;20.11;69.19;100313.94;5074816;28;20198;-83
2023/10/01 00:31:17;;;;;;;3.50;1.83;;;;;;;20.04;66.88;100293.91;5074828;28;20682;-82
2023/10/01 00:33:44;;;;;;;1.10;1.10;;;;;;;20.16;68.89;100319.97;5073689;28;20694;-82
2023/10/01 00:36:11;;;;;;;2.50;1.10;;;;;;;19.93;67.33;100287.97;5073849;28;20213;-82
2023/10/01 00:38:38;;;;;;;3.05;1.38;;;;;;;20.02;68.76;100314.97;5073836;28;20317;-82
2023/10/01 00:41:07;;;;;;;1.92;1.77;;;;;;;20.00;67.71;100293.09;5074703;28;20229;-82
2023/10/01 00:43:36;;;;;;;1.75;1.15;;;;;;;20.14;65.90;100305.97;5073721;28;20195;-81
2023/10/01 00:46:03;;;;;;;1.52;1.20;;;;;;;20.11;65.23;100309.53;5074505;28;20241;-81
2023/10/01 00:48:30;;;;;;;3.40;2.35;;;;;;;20.04;65.40;100272.84;5034852;28;20192;-83
2023/10/01 00:50:59;;;;;;;1.58;1.08;;;;;;;20.21;65.28;100310.22;5054746;28;20207;-83
2023/10/01 00:53:26;;;;;;;0.90;0.90;;;;;;;20.15;65.06;100308.59;5071768;28;20305;-83
2023/10/01 00:55:53;;;;;;;1.95;1.27;;;;;;;20.16;63.97;100318.19;5075055;28;20198;-82
2023/10/01 00:58:21;;;;;;;1.70;1.23;;;;;;;20.22;63.61;100311.97;5074499;28;20285;-82
2023/10/01 01:00:50;;;;;;;1.85;1.00;;;;;;;20.33;65.34;100328.44;5075343;28;20206;-82
2023/10/01 01:03:21;;;;;;;2.38;1.20;;;;;;;19.89;67.06;100300.31;5074253;28;20191;-82
2023/10/01 01:06:05;;;;;;;1.08;0.98;;;;;;;19.88;68.92;100319.63;5074443;28;20210;-82
2023/10/01 01:08:34;;;;;;;2.15;1.10;;;;;;;19.65;69.81;100321.84;5074994;28;20203;-82
2023/10/01 01:11:02;;;;;;;2.25;1.27;;;;;;;19.44;70.89;100311.72;5074351;28;20203;-82
2023/10/01 01:13:30;;;;;;;1.05;1.05;;;;;;;19.19;70.95;100305.97;5068048;28;20726;-82
2023/10/01 01:16:00;;;;;;;2.67;1.02;;;;;;;19.20;71.95;100326.94;5065117;28;20264;-82
2023/10/01 01:18:27;;;;;;;1.05;0.85;;;;;;;18.97;73.66;100331.72;5074554;28;20198;-82
2023/10/01 01:20:58;;;;;;;0.95;0.70;;;;;;;18.95;76.79;100330.84;5074054;28;20230;-82
2023/10/01 01:23:26;;;;;;;1.98;1.60;;;;;;;18.95;80.40;100337.84;5039607;28;20207;-79
2023/10/01 01:25:54;;;;;;;0.93;0.88;;;;;;;18.76;82.42;100329.41;5076119;28;20199;-82
2023/10/01 01:28:24;;;;;;;5.32;2.35;;;;;;;18.78;84.61;100336.38;5076630;28;20206;-83
2023/10/01 01:30:52;;;;;;;1.20;1.20;;;;;;;18.78;87.01;100335.50;5077123;28;20225;-82
2023/10/01 01:33:21;;;;;;;1.88;1.67;;;;;;;18.78;87.04;100336.38;5041554;28;20210;-82
2023/10/01 01:35:49;;;;;;;2.05;1.40;;;;;;;18.53;86.85;100297.31;5076910;28;20214;-82
2023/10/01 01:38:16;;;;;;;5.85;1.77;;;;;;;18.42;87.65;100289.56;5078306;28;20685;-82
2023/10/01 01:40:47;;;;;;;3.03;1.23;;;;;;;18.67;86.00;100317.25;5078140;28;20716;-82
2023/10/01 01:43:21;;;;;;;4.45;1.85;;;;;;;18.68;86.09;100326.00;5075434;28;20256;-82
2023/10/01 01:45:48;;;;;;;6.40;2.75;;;;;;;18.73;85.86;100314.53;5074363;28;20335;-82
2023/10/01 01:48:30;;;;;;;4.15;1.85;;;;;;;18.57;87.39;100299.91;5077164;28;20242;-82
2023/10/01 01:50:58;;;;;;;5.07;1.80;;;;;;;18.52;87.64;100296.44;5081231;28;20210;-82
2023/10/01 01:53:27;;;;;;;2.08;1.40;;;;;;;18.73;82.59;100326.78;5081474;28;20226;-80
2023/10/01 01:55:59;;;;;;;2.17;1.10;;;;;;;18.81;85.92;100336.31;5047931;28;20312;-82
2023/10/01 01:58:26;;;;;;;4.85;1.67;;;;;;;18.74;85.25;100328.53;5082880;28;20199;-82
2023/10/01 02:01:23;;;;;;;2.97;1.20;;;;;;;18.91;84.62;100334.41;5083053;28;20202;-82
2023/10/01 02:03:51;;;;;;;3.50;1.17;;;;;;;18.73;83.86;100337.31;5083250;28;20194;-81
2023/10/01 02:06:26;;;;;;;5.20;1.85;;;;;;;18.68;85.18;100331.25;5080508;28;20203;-82
2023/10/01 02:08:57;;;;;;;7.45;1.38;;;;;;;18.65;86.18;100328.69;5080777;28;20202;-82
2023/10/01 02:11:25;;;;;;;3.92;1.27;;;;;;;18.62;87.26;100312.97;5080584;28;20199;-81
2023/10/01 02:13:54;;;;;;;4.18;1.27;;;;;;;18.55;89.03;100319.19;5080934;28;20227;-82
2023/10/01 02:16:36;;;;;;;4.25;1.48;;;;;;;18.52;89.52;100324.47;5081440;28;20213;-81
2023/10/01 02:19:18;;;;;;;3.50;1.40;;;;;;;18.52;90.65;100319.22;5080570;28;20226;-81
2023/10/01 02:21:49;;;;;;;2.92;1.35;;;;;;;18.34;92.29;100292.28;5079003;28;20203;-81
2023/10/01 02:24:22;;;;;;;3.22;1.42;;;;;;;18.48;93.24;100325.38;5077577;28;20207;-81
2023/10/01 02:26:58;;;;;;;2.35;1.25;;;;;;;18.48;94.05;100325.38;5079489;28;20740;-81
2023/10/01 02:29:29;;;;;;;2.70;1.73;;;;;;;18.37;94.32;100328.13;5081543;28;20191;-81
2023/10/01 02:31:56;;;;;;;4.40;1.35;;;;;;;18.32;94.47;100332.56;5079431;28;20210;-80
2023/10/01 02:34:23;;;;;;;2.40;1.45;;;;;;;18.28;95.05;100329.13;5079247;28;20610;-82
2023/10/01 02:36:49;;;;;;;1.33;0.90;;;;;;;18.21;96.13;100322.22;5080890;28;20203;-77
2023/10/01 02:39:21;;;;;;;1.27;1.05;;;;;;;18.30;96.02;100335.22;5079369;28;20199;-81
2023/10/01 02:42:09;;;;;;;2.05;1.02;;;;;;;18.42;95.19;100330.69;5077110;28;20310;-82
2023/10/01 02:44:38;;;;;;;0.80;0.80;;;;;;;18.40;92.32;100337.75;5045782;28;20286;-78
2023/10/01 02:47:16;;;;;;;2.33;1.25;;;;;;;18.21;92.86;100309.09;5076993;28;20256;-80
2023/10/01 02:49:48;;;;;;;3.08;1.67;;;;;;;18.33;92.78;100339.56;5080224;28;20214;-82
2023/10/01 02:52:15;;;;;;;1.20;0.98;;;;;;;18.31;92.66;100333.47;5079738;28;20202;-82
2023/10/01 02:54:42;;;;;;;0.80;0.80;;;;;;;18.15;93.10;100311.78;5066185;28;20230;-81
2023/10/01 02:57:23;;;;;;;7.13;1.38;;;;;;;18.34;93.32;100333.41;5080838;28;20217;-81
2023/10/01 03:02:33;;;;;;;8.35;1.58;;;;;;;18.26;93.41;100330.03;5077942;28;20202;-81
2023/10/01 03:05:06;;;;;;;2.60;1.27;;;;;;;18.18;93.01;100316.13;5078652;28;20202;-80
2023/10/01 03:07:38;;;;;;;2.20;1.63;;;;;;;18.28;95.08;100338.75;5059424;28;20237;-82
2023/10/01 03:10:12;;;;;;;2.50;1.50;;;;;;;18.36;96.98;100338.66;5074502;28;20199;-79
2023/10/01 03:12:42;;;;;;;3.35;1.65;;;;;;;17.92;100.00;100271.81;5056487;28;20211;-81
2023/10/01 03:15:23;;;;;;;2.45;1.30;;;;;;;18.20;100.00;100351.97;5073567;28;20218;-81
2023/10/01 03:17:57;;;;;;;6.35;1.83;;;;;;;18.24;100.00;100342.28;5073871;28;20285;-82
2023/10/01 03:23:12;;;;;;;1.40;1.23;;;;;;;18.20;100.00;100341.47;5073913;28;20210;-82
2023/10/01 03:25:42;;;;;;;4.07;2.20;;;;;;;18.17;100.00;100349.38;5073771;28;20285;-83
2023/10/01 03:28:25;;;;;;;2.10;0.98;;;;;;;18.19;100.00;100349.38;5074511;28;20654;-81
2023/10/01 03:30:52;;;;;;;1.13;1.02;;;;;;;18.03;100.00;100347.78;5074078;28;20198;-82
2023/10/01 03:33:20;;;;;;;1.00;0.90;;;;;;;17.94;100.00;100353.16;5073494;28;20206;-83
2023/10/01 03:35:48;;;;;;;4.22;1.65;;;;;;;17.84;100.00;100347.13;5074032;28;20237;-82
2023/10/01 03:38:16;;;;;;;1.50;1.35;;;;;;;17.95;100.00;100344.38;5073617;28;20230;-83
2023/10/01 03:41:00;;;;;;;2.42;1.35;;;;;;;17.95;100.00;100324.25;5073742;28;20675;-82
2023/10/01 03:43:35;;;;;;;0.85;0.85;;;;;;;17.61;100.00;100333.38;5073240;28;20647;-83
2023/10/01 03:46:13;;;;;;;2.95;1.38;;;;;;;17.61;97.49;100329.00;5073822;28;20222;-83
2023/10/01 03:51:31;;;;;;;1.42;1.13;;;;;;;17.54;93.14;100306.31;5073343;28;20352;-83
2023/10/01 03:54:03;;;;;;;1.85;1.08;;;;;;;17.87;92.73;100347.09;5072620;28;20223;-82
2023/10/01 03:56:31;;;;;;;1.23;1.23;;;;;;;17.94;92.46;100333.03;5073184;28;20198;-81
2023/10/01 03:58:59;;;;;;;3.13;1.27;;;;;;;17.96;91.24;100320.75;5038621;28;20204;-82
2023/10/01 04:01:34;;;;;;;2.75;1.27;;;;;;;18.02;91.24;100339.03;5072882;28;20632;-82
2023/10/01 04:04:01;;;;;;;2.67;1.20;;;;;;;18.03;91.38;100347.78;5072962;28;20682;-81
2023/10/01 04:06:30;;;;;;;2.55;1.27;;;;;;;18.09;91.35;100337.22;5073320;28;20249;-81
2023/10/01 04:09:00;;;;;;;2.17;1.33;;;;;;;17.76;92.19;100301.75;5038263;28;20742;-83
2023/10/01 04:14:10;;;;;;;1.20;1.00;;;;;;;18.37;89.98;100353.53;5072209;28;20329;-82
2023/10/01 04:16:46;;;;;;;1.38;1.33;;;;;;;18.28;89.83;100339.63;5038089;28;20195;-82
2023/10/01 04:19:18;;;;;;;1.90;0.95;;;;;;;18.30;89.65;100353.59;5072678;28;20222;-82
2023/10/01 04:21:50;;;;;;;1.40;1.10;;;;;;;18.20;89.82;100346.72;5072033;28;20199;-82
2023/10/01 04:24:19;;;;;;;2.50;1.38;;;;;;;18.38;88.79;100358.75;5071897;28;20260;-83
2023/10/01 04:26:47;;;;;;;2.35;1.23;;;;;;;18.37;89.18;100343.88;5073074;28;20191;-83
2023/10/01 04:29:16;;;;;;;1.83;1.13;;;;;;;18.58;88.53;100371.69;5072760;28;20199;-83
2023/10/01 04:31:48;;;;;;;2.83;1.77;;;;;;;18.26;88.91;100336.13;5072787;28;20880;-82
2023/10/01 04:34:17;;;;;;;2.00;1.45;;;;;;;18.52;88.29;100369.97;5052600;28;20250;-82
2023/10/01 04:36:50;;;;;;;2.55;1.30;;;;;;;18.52;88.57;100372.59;5053315;28;20211;-82
2023/10/01 04:39:17;;;;;;;4.53;2.83;;;;;;;18.56;88.09;100378.69;5056090;28;20191;-82
2023/10/01 04:41:45;;;;;;;0.95;0.95;;;;;;;18.57;88.50;100383.06;5072655;28;20202;-81
2023/10/01 04:44:13;;;;;;;1.98;1.13;;;;;;;18.40;87.84;100382.38;5072163;28;20541;-82
2023/10/01 04:46:41;;;;;;;3.08;1.13;;;;;;;18.31;88.15;100392.09;5072393;28;20503;-82
2023/10/01 04:51:53;;;;;;;2.28;1.13;;;;;;;18.07;90.27;100400.25;5072214;28;20826;-82
2023/10/01 04:54:21;;;;;;;3.47;1.35;;;;;;;18.03;90.86;100388.03;5069493;28;20222;-82
2023/10/01 04:56:49;;;;;;;1.25;1.25;;;;;;;18.08;91.77;100394.13;5072395;28;20198;-82
2023/10/01 04:59:16;;;;;;;3.55;1.77;;;;;;;17.91;91.92;100368.94;5072033;28;20205;-81
2023/10/01 05:01:44;;;;;;;1.85;0.90;;;;;;;18.13;93.00;100408.03;5064419;28;20213;-81
2023/10/01 05:04:14;;;;;;;1.33;1.20;;;;;;;18.04;94.08;100405.53;5071161;28;20210;-83
2023/10/01 05:06:43;;;;;;;2.67;1.30;;;;;;;18.20;94.80;100409.72;5071363;28;20271;-80
2023/10/01 05:09:14;;;;;;;3.22;1.52;;;;;;;18.24;95.56;100403.53;5071222;28;20236;-82
2023/10/01 05:11:42;;;;;;;2.83;1.38;;;;;;;18.26;96.49;100417.50;5070819;28;20256;-83
2023/10/01 05:14:11;;;;;;;1.70;1.58;;;;;;;18.30;90.71;100419.22;5071205;28;20687;-81
2023/10/01 05:16:39;;;;;;;4.32;1.92;;;;;;;18.21;88.21;100395.72;5052416;28;20201;-78
2023/10/01 05:19:13;;;;;;;3.53;1.27;;;;;;;18.44;87.24;100418.22;5070913;28;20231;-76
2023/10/01 05:21:46;;;;;;;1.85;1.02;;;;;;;18.50;87.04;100421.63;5070959;28;20856;-77
2023/10/01 05:24:15;;;;;;;4.95;1.20;;;;;;;18.54;88.89;100433.00;5072438;28;20209;-78
2023/10/01 05:26:44;;;;;;;3.10;1.20;;;;;;;18.57;87.19;100422.47;5076266;28;20659;-82
2023/10/01 05:29:13;;;;;;;1.98;0.85;;;;;;;18.61;87.05;100426.78;5075793;28;20229;-79
2023/10/01 05:31:41;;;;;;;2.08;1.10;;;;;;;18.66;87.57;100435.47;5091006;28;20204;-82
2023/10/01 05:34:11;;;;;;;4.32;1.20;;;;;;;18.50;87.72;100403.25;5076092;28;20218;-80
2023/10/01 05:36:38;;;;;;;4.68;1.17;;;;;;;18.70;92.11;100434.53;5075101;28;20205;-75
2023/10/01 05:39:11;;;;;;;3.50;1.35;;;;;;;18.80;86.77;100438.78;5075206;28;20206;-74
2023/10/01 05:41:44;;;;;;;2.55;1.15;;;;;;;18.94;86.14;100446.53;5045233;28;20207;-74
2023/10/01 05:44:12;;;;;;;3.50;1.25;;;;;;;19.08;85.61;100444.56;5074491;28;20207;-74
2023/10/01 05:46:40;;;;;;;1.63;1.13;;;;;;;19.15;91.20;100441.84;5074344;28;20211;-73
2023/10/01 05:49:12;;;;;;;2.03;1.33;;;;;;;19.37;89.63;100442.38;5029577;28;20260;-73
2023/10/01 05:51:46;;;;;;;1.75;1.45;;;;;;;19.57;84.36;100444.75;5071581;28;20566;-76
2023/10/01 05:54:18;;;;;;;5.88;2.20;;;;;;;19.46;91.98;100441.41;5074065;28;20207;-76
2023/10/01 05:56:48;;;;;;;0.93;0.93;;;;;;;19.94;85.62;100445.84;5073639;28;20207;-75
2023/10/01 05:59:16;;;;;;;3.25;1.08;;;;;;;19.80;83.56;100414.53;5069660;28;20235;-78
2023/10/01 06:01:43;;;;;;;10.38;1.80;;;;;;;20.11;81.58;100448.22;5060587;28;20203;-75
2023/10/01 06:04:12;;;;;;;6.95;1.73;;;;;;;20.27;80.85;100440.03;5073747;28;20286;-77
2023/10/01 06:06:42;;;;;;;6.78;1.80;;;;;;;20.34;79.67;100440.78;5069155;28;20207;-77
2023/10/01 06:09:14;;;;;;;7.15;1.70;;;;;;;20.31;79.56;100443.47;5051242;28;20692;-77
2023/10/01 06:11:48;;;;;;;12.00;2.13;;;;;;;20.05;79.56;100404.41;5073283;28;20207;-78
2023/10/01 06:17:00;;;;;;;11.45;2.50;;;;;;;20.24;79.24;100444.44;5030931;28;20196;-77
2023/10/01 06:19:27;;;;;;;9.40;3.15;;;;;;;19.82;78.81;100364.50;5031242;28;20232;-77
2023/10/01 06:22:12;;;;;;;9.85;1.75;;;;;;;20.42;78.94;100454.69;5033869;28;20207;-77
2023/10/01 06:24:39;;;;;;;8.18;1.65;;;;;;;20.62;79.25;100451.63;5023035;28;20576;-76
2023/10/01 06:27:06;;;;;;;4.85;1.20;;;;;;;20.35;80.88;100445.16;5034171;28;21254;-77
2023/10/01 06:29:33;;;;;;;3.85;1.15;;;;;;;20.62;78.69;100473.59;5031420;28;20216;-77
2023/10/01 06:32:01;;;;;;;11.57;2.42;;;;;;;20.63;78.58;100470.06;5035901;28;20299;-76
2023/10/01 06:34:31;;;;;;;9.25;1.92;;;;;;;20.78;78.38;100471.53;5020133;28;20307;-75
2023/10/01 06:37:01;;;;;;;8.13;1.77;;;;;;;20.85;78.33;100462.59;5029545;28;20204;-78
2023/10/01 06:39:30;;;;;;;11.75;2.28;;;;;;;21.01;77.83;100471.91;5031651;28;20227;-76
2023/10/01 06:42:18;;;;;;;6.10;1.67;;;;;;;21.00;76.73;100475.47;5031439;28;20215;-77
2023/10/01 06:44:45;;;;;;;10.48;2.10;;;;;;;20.67;77.51;100445.38;5029895;28;20642;-75
2023/10/01 06:47:15;;;;;;;11.20;2.35;;;;;;;20.95;78.14;100457.97;5031119;28;20210;-77
2023/10/01 06:49:57;;;;;;;14.02;2.42;;;;;;;20.93;77.30;100444.84;5023291;28;20244;-78
2023/10/01 06:52:26;;;;;;;13.07;2.08;;;;;;;21.13;76.88;100471.69;5027469;28;20791;-78
2023/10/01 06:54:53;;;;;;;7.82;1.77;;;;;;;21.07;77.51;100455.09;5050192;28;20309;-77
2023/10/01 07:01:42;;;;;;;6.15;1.90;;;;;;;21.66;73.49;100477.50;5088898;27;20551;-75
2023/10/01 07:04:11;;;;;;;6.70;1.63;;;;;;;21.47;69.00;100460.38;5066448;28;20205;-72
2023/10/01 07:06:38;;;;;;;5.38;1.92;;;;;;;21.49;69.35;100469.13;5072809;28;20260;-75
2023/10/01 07:09:06;;;;;;;8.32;2.05;;;;;;;21.60;67.75;100472.38;5081423;28;20198;-77
2023/10/01 07:11:33;;;;;;;6.38;1.77;;;;;;;21.58;67.30;100485.59;5083166;28;20222;-75
2023/10/01 07:14:02;;;;;;;7.47;1.35;;;;;;;21.46;67.82;100464.78;5061329;28;20281;-72
2023/10/01 07:16:39;;;;;;;7.85;1.92;;;;;;;21.66;67.16;100488.06;5066981;28;20209;-73
2023/10/01 07:19:11;;;;;;;9.55;2.67;;;;;;;21.94;66.99;100488.31;5072442;28;20385;-75
2023/10/01 07:21:38;;;;;;;7.72;1.83;;;;;;;22.04;68.07;100490.69;5059378;28;20238;-73
2023/10/01 07:24:10;;;;;;;5.00;1.67;;;;;;;21.71;66.12;100470.34;5075354;28;20207;-77
2023/10/01 07:26:40;;;;;;;4.97;2.50;;;;;;;22.08;69.84;100497.59;5065436;28;20210;-78
2023/10/01 07:29:07;;;;;;;5.57;1.83;;;;;;;22.24;66.50;100504.25;5067664;28;20207;-72
2023/10/01 07:31:35;;;;;;;6.75;1.88;;;;;;;22.16;67.74;100511.47;5069050;28;20226;-73
2023/10/01 07:34:12;;;;;;;4.20;1.90;;;;;;;22.17;65.02;100502.66;5074454;28;20198;-78
2023/10/01 07:36:42;;;;;;;7.20;1.65;;;;;;;22.28;66.52;100509.44;5029482;28;20196;-72
2023/10/01 07:39:12;;;;;;;7.50;1.98;;;;;;;22.43;66.22;100504.63;5069066;28;20239;-75
2023/10/01 07:41:39;;;;;;;5.80;1.88;;;;;;;22.38;63.87;100505.63;5067280;28;20202;-75
2023/10/01 07:44:09;;;;;;;6.97;1.98;;;;;;;22.49;65.29;100499.16;5030987;28;20199;-75
2023/10/01 07:46:37;;;;;;;6.85;2.08;;;;;;;22.44;62.99;100505.50;5072326;28;20210;-74
2023/10/01 07:49:04;;;;;;;4.15;1.50;;;;;;;22.48;64.25;100512.41;5067105;28;20222;-75
2023/10/01 07:51:35;;;;;;;3.85;1.45;;;;;;;22.57;63.88;100507.75;5067213;28;20231;-75
2023/10/01 07:54:09;;;;;;;6.90;1.95;;;;;;;22.68;64.86;100516.31;5066988;28;20252;-76
2023/10/01 07:56:39;;;;;;;5.45;1.85;;;;;;;22.59;65.44;100510.34;5066836;28;20223;-75
2023/10/01 07:59:28;;;;;;;5.13;1.63;;;;;;;22.76;65.37;100513.41;5047064;28;20261;-74
2023/10/01 08:02:09;;;;;;;7.82;2.35;;;;;;;22.87;64.64;100514.00;5049520;28;20195;-76
2023/10/01 08:07:22;;;;;;;4.95;1.50;;;;;;;23.10;63.70;100521.28;5067634;28;20198;-75
2023/10/01 08:09:52;;;;;;;3.95;1.50;;;;;;;23.24;61.40;100532.31;5066960;28;20227;-83
2023/10/01 08:12:28;;;;;;;3.60;1.45;;;;;;;23.45;61.11;100536.13;5057888;28;20224;-79
2023/10/01 08:17:36;;;;;;;4.65;1.95;;;;;;;23.47;65.10;100536.97;5062269;28;20205;-76
2023/10/01 08:20:21;;;;;;;7.53;2.38;;;;;;;23.49;70.72;100514.81;5056511;28;20207;-77
2023/10/01 08:25:32;;;;;;;5.28;1.75;;;;;;;23.50;70.73;100540.38;5049301;28;20211;-74
2023/10/01 08:30:49;;;;;;;3.70;1.40;;;;;;;23.43;71.97;100543.25;5011149;28;20251;-77
2023/10/01 08:33:19;;;;;;;7.95;1.83;;;;;;;23.47;72.21;100544.91;4979694;28;20232;-74
2023/10/01 08:35:56;;;;;;;5.20;2.00;;;;;;;23.33;71.31;100547.91;5009141;28;20209;-74
2023/10/01 08:38:23;;;;;;;3.55;2.00;;;;;;;23.40;71.31;100522.16;5011887;28;20220;-75
2023/10/01 08:40:55;;;;;;;4.53;2.03;;;;;;;23.82;70.13;100552.63;5011018;28;20212;-75
2023/10/01 08:43:22;;;;;;;4.70;1.60;;;;;;;23.56;69.35;100550.78;4963267;28;20211;-77
2023/10/01 08:45:52;;;;;;;3.13;1.50;;;;;;;23.82;66.53;100552.63;4961010;28;20219;-75
2023/10/01 08:48:19;;;;;;;6.55;1.67;;;;;;;23.92;61.46;100559.34;5022437;28;20204;-76
2023/10/01 08:50:47;;;;;;;5.47;2.22;;;;;;;24.04;58.60;100564.25;5022848;28;20231;-75
2023/10/01 08:53:16;;;;;;;5.25;2.08;;;;;;;24.11;56.06;100557.00;5010971;28;20223;-75
2023/10/01 08:58:26;;;;;;;5.90;1.80;;;;;;;24.24;54.15;100566.28;5010156;28;20208;-76
2023/10/01 09:00:56;;;;;;;2.95;1.30;;;;;;;24.17;53.74;100560.34;5007219;28;20232;-77
2023/10/01 09:03:28;;;;;;;3.72;1.77;;;;;;;24.33;53.45;100559.84;5014958;28;21425;-78
2023/10/01 09:06:03;;;;;;;5.82;1.80;;;;;;;24.22;51.90;100543.41;5011308;28;20212;-77
2023/10/01 09:08:31;;;;;;;3.50;1.27;;;;;;;24.57;52.21;100561.63;5044235;28;20683;-77
2023/10/01 09:11:01;;;;;;;2.92;1.20;;;;;;;24.71;53.26;100550.53;5052284;28;20227;-77
2023/10/01 09:13:30;;;;;;;8.80;2.10;;;;;;;24.79;48.45;100548.50;5044530;28;20234;-76
2023/10/01 09:16:10;;;;;;;3.47;1.50;;;;;;;24.62;47.36;100493.38;5052286;28;20634;-77
2023/10/01 09:19:01;;;;;;;3.00;1.70;;;;;;;24.82;48.21;100548.38;5052666;28;20211;-77
2023/10/01 09:21:38;;;;;;;3.78;1.60;;;;;;;24.74;47.94;100546.00;5052192;28;20204;-77
2023/10/01 09:27:08;;;;;;;3.38;1.75;;;;;;;25.20;48.94;100539.03;5045404;28;20210;-79
2023/10/01 09:29:43;;;;;;;5.00;2.85;;;;;;;25.11;47.00;100498.63;5052420;28;20200;-82
2023/10/01 09:32:11;;;;;;;10.25;3.95;;;;;;;25.40;47.20;100541.81;5052105;28;20595;-79
2023/10/01 09:34:46;;;;;;;5.72;2.33;;;;;;;25.23;47.44;100529.16;5054197;28;20599;-80
2023/10/01 09:37:30;;;;;;;3.75;1.73;;;;;;;25.31;46.78;100537.69;5053816;28;20227;-83
2023/10/01 09:40:03;;;;;;;5.82;1.60;;;;;;;25.45;46.45;100539.81;5021754;28;20202;-79
2023/10/01 09:42:33;;;;;;;3.15;1.67;;;;;;;25.59;46.63;100540.19;5053402;28;20285;-80
2023/10/01 09:45:24;;;;;;;2.00;1.20;;;;;;;25.81;46.14;100541.06;5060032;28;20222;-80
2023/10/01 09:48:02;;;;;;;4.07;1.42;;;;;;;25.89;45.94;100536.31;5055167;28;20203;-79
2023/10/01 09:50:31;;;;;;;4.50;1.75;;;;;;;25.60;45.85;100533.94;5048300;28;20293;-79
2023/10/01 09:53:00;;;;;;;5.72;2.38;;;;;;;25.84;45.48;100543.59;5051493;28;20623;-80
2023/10/01 09:55:29;;;;;;;5.35;1.90;;;;;;;25.86;45.68;100547.06;5039951;28;20690;-75
2023/10/01 09:57:56;;;;;;;4.05;1.75;;;;;;;25.64;46.04;100538.22;5054942;28;20207;-77
2023/10/01 10:00:39;;;;;;;3.35;1.50;;;;;;;25.84;46.04;100530.31;5051393;28;20322;-75
2023/10/01 10:03:11;;;;;;;4.32;1.50;;;;;;;26.03;46.62;100547.25;5050112;28;20690;-76
2023/10/01 10:05:40;;;;;;;2.30;1.50;;;;;;;25.81;47.41;100527.78;5054620;28;20190;-76
2023/10/01 10:08:15;;;;;;;6.05;2.08;;;;;;;25.49;45.86;100459.13;5007983;28;20211;-75
2023/10/01 10:10:48;;;;;;;4.32;2.00;;;;;;;25.89;45.09;100501.78;5052194;28;20318;-75
2023/10/01 10:13:36;;;;;;;4.60;2.75;;;;;;;26.27;44.87;100541.84;5050909;28;20204;-77
2023/10/01 10:16:30;;;;;;;4.53;1.52;;;;;;;26.28;45.64;100541.81;5044751;28;20207;-75
2023/10/01 10:19:08;;;;;;;5.97;2.10;;;;;;;26.48;45.68;100536.50;5047943;28;20672;-76
2023/10/01 10:22:16;;;;;;;6.22;2.40;;;;;;;26.51;45.69;100535.50;5050829;28;20208;-72
2023/10/01 10:24:46;;;;;;;3.15;1.45;;;;;;;26.25;45.35;100533.97;5050380;28;20199;-77
2023/10/01 10:27:17;;;;;;;23.00;9.80;;;;;;;26.15;46.03;100501.53;5044412;28;20598;-77
2023/10/01 10:30:21;;;;;;;5.07;2.33;;;;;;;26.55;44.48;100523.78;5035977;28;20204;-77
2023/10/01 10:33:43;;;;;;;5.57;2.65;;;;;;;26.44;44.40;100515.41;4996923;28;20320;-75
2023/10/01 10:36:55;;;;;;;4.72;1.85;;;;;;;26.61;44.07;100511.06;4988805;28;20609;-77
2023/10/01 10:40:26;;;;;;;2.70;1.63;;;;;;;26.70;44.13;100516.94;4971490;28;20213;-75
2023/10/01 10:43:16;;;;;;;3.72;1.73;;;;;;;26.49;44.08;100473.53;4986945;28;20548;-74
2023/10/01 10:45:58;;;;;;;1.70;1.30;;;;;;;26.73;43.77;100495.50;4992480;28;20646;-77
2023/10/01 10:48:59;;;;;;;4.95;2.53;;;;;;;27.15;43.38;100503.38;4988571;28;20275;-78
2023/10/01 10:51:46;;;;;;;5.07;1.83;;;;;;;27.02;43.27;100484.44;4994187;28;20342;-75
2023/10/01 10:54:16;;;;;;;5.45;2.05;;;;;;;27.06;43.84;100502.88;4968509;28;20240;-76
2023/10/01 10:56:44;;;;;;;5.22;2.38;;;;;;;26.99;42.96;100501.44;4994170;28;20328;-76
2023/10/01 10:59:13;;;;;;;4.63;1.73;;;;;;;26.96;42.47;100488.25;4991749;28;20225;-75
2023/10/01 11:01:44;;;;;;;3.35;2.05;;;;;;;27.16;41.63;100497.97;4996066;28;20213;-77
2023/10/01 11:04:11;;;;;;;6.95;2.30;;;;;;;27.20;42.65;100490.72;4992096;28;20204;-76
2023/10/01 11:06:42;;;;;;;10.98;2.35;;;;;;;27.39;43.86;100478.25;5004132;28;20207;-75
2023/10/01 11:09:24;;;;;;;3.13;1.92;;;;;;;27.26;42.57;100480.63;5036404;28;20204;-77
2023/10/01 11:11:51;;;;;;;11.07;2.53;;;;;;;27.38;42.62;100472.06;5044205;28;20223;-77
2023/10/01 11:14:19;;;;;;;7.38;2.47;;;;;;;27.41;41.80;100463.94;5048160;28;20214;-77
2023/10/01 11:16:47;;;;;;;3.72;1.50;;;;;;;27.30;41.47;100444.06;5038358;28;20217;-76
2023/10/01 11:19:16;;;;;;;2.42;1.77;;;;;;;27.34;42.55;100480.28;5050550;28;20203;-74
2023/10/01 11:21:54;;;;;;;4.05;2.70;;;;;;;27.47;42.04;100482.31;5049672;28;20674;-75
2023/10/01 11:24:24;;;;;;;3.75;2.13;;;;;;;27.58;41.91;100485.31;5027434;28;20713;-75
2023/10/01 11:27:25;;;;;;;3.75;1.73;;;;;;;27.79;41.21;100470.06;5022610;28;20236;-72
2023/10/01 11:30:16;;;;;;;3.92;1.75;;;;;;;27.74;41.51;100479.25;5048631;28;20199;-76
2023/10/01 11:33:01;;;;;;;9.23;1.77;;;;;;;27.84;41.69;100459.19;5049718;28;20310;-77
2023/10/01 11:35:32;;;;;;;6.63;2.15;;;;;;;28.17;41.00;100472.66;5050032;28;20629;-76
2023/10/01 11:38:00;;;;;;;3.25;2.05;;;;;;;28.13;41.36;100476.41;5030495;28;20203;-78
2023/10/01 11:41:06;;;;;;;8.45;1.50;;;;;;;28.04;41.30;100478.56;5037711;28;20231;-78
2023/10/01 11:43:23;;;;;;;5.30;1.85;;;;;;;27.67;41.40;100388.09;5047501;28;20272;-76
2023/10/01 11:46:23;;;;;;;2.35;1.83;;;;;;;28.29;40.27;100480.88;5050255;28;20207;-74
2023/10/01 11:48:59;;;;;;;4.25;1.80;;;;;;;28.00;41.39;100470.81;5048112;28;20211;-75
2023/10/01 11:51:36;;;;;;;7.47;2.13;;;;;;;28.27;40.94;100463.22;5055566;28;20710;-76
2023/10/01 11:54:09;;;;;;;4.10;1.73;;;;;;;28.01;41.50;100419.19;5052082;28;20727;-77
2023/10/01 11:56:40;;;;;;;4.50;1.83;;;;;;;28.06;40.79;100455.38;5049872;28;20203;-74
2023/10/01 11:59:10;;;;;;;2.75;1.65;;;;;;;27.86;40.75;100465.31;5052642;28;20352;-74
2023/10/01 12:01:49;;;;;;;4.65;1.75;;;;;;;27.77;40.57;100468.41;5039933;28;20321;-77
2023/10/01 12:04:44;;;;;;;4.15;1.55;;;;;;;27.38;39.96;100370.84;5050607;28;20199;-75
2023/10/01 12:07:18;;;;;;;3.10;1.50;;;;;;;28.02;40.50;100460.94;5052586;28;20570;-74
2023/10/01 12:09:49;;;;;;;6.18;2.40;;;;;;;28.14;40.67;100451.47;5052889;28;20206;-75
2023/10/01 12:12:19;;;;;;;6.75;2.50;;;;;;;28.35;40.35;100451.22;5058966;28;20281;-76
2023/10/01 12:14:56;;;;;;;5.78;2.17;;;;;;;27.63;39.55;100354.53;5052922;28;20238;-76
2023/10/01 12:17:24;;;;;;;2.58;1.58;;;;;;;28.09;39.72;100411.72;5052657;28;20278;-74
2023/10/01 12:19:57;;;;;;;6.45;3.55;;;;;;;28.44;39.11;100442.72;5018925;28;20214;-77
2023/10/01 12:22:27;;;;;;;3.60;2.15;;;;;;;28.26;39.30;100438.34;5041896;28;20218;-76
2023/10/01 12:24:58;;;;;;;4.45;2.60;;;;;;;28.32;39.00;100440.72;5050390;28;20207;-78
2023/10/01 12:27:45;;;;;;;3.10;1.38;;;;;;;28.15;38.80;100405.19;5049679;28;20200;-78